Time;durP1;ratioP1;P1;durP2;ratioP2;P2;SDS_P1;SDS_P2;PMS_P1;PMS_P2;Temp;Humidity;BMP_temperature;BMP_pressure;BME280_temperature;BME280_humidity;BME280_pressure;Samples;Min_cycle;Max_cycle;Signal;HPM_P1;HPM_P2
2022/03/27 00:02:20;;;;;;;5.88;3.75;;;23.40;36.10;;;;;;5028083;28;20032;-49
2022/03/27 00:04:46;;;;;;;4.80;2.90;;;23.40;36.00;;;;;;5027589;28;20030;-48
2022/03/27 00:07:12;;;;;;;4.68;2.90;;;23.40;36.00;;;;;;5027724;28;20091;-47
2022/03/27 00:09:38;;;;;;;4.95;3.22;;;23.40;36.00;;;;;;5027478;28;20033;-49
2022/03/27 00:12:04;;;;;;;4.55;2.88;;;23.40;36.00;;;;;;5027332;28;20029;-49
2022/03/27 00:14:30;;;;;;;4.18;2.67;;;23.40;36.00;;;;;;5027053;28;20566;-48
2022/03/27 00:16:56;;;;;;;4.32;2.85;;;23.40;36.00;;;;;;5027752;28;20022;-49
2022/03/27 00:19:22;;;;;;;5.57;3.20;;;23.30;35.90;;;;;;5027356;28;20055;-48
2022/03/27 00:21:47;;;;;;;4.35;2.75;;;23.40;35.90;;;;;;5027670;28;20029;-49
2022/03/27 00:24:13;;;;;;;4.70;3.17;;;23.30;36.60;;;;;;5027424;28;20026;-48
2022/03/27 00:26:40;;;;;;;4.32;2.90;;;23.30;35.90;;;;;;5026916;28;20064;-48
2022/03/27 00:29:05;;;;;;;4.68;2.72;;;23.30;35.90;;;;;;5026813;28;20026;-49
2022/03/27 00:31:35;;;;;;;4.07;2.92;;;23.30;35.90;;;;;;5026110;28;20029;-47
2022/03/27 00:34:02;;;;;;;5.20;3.25;;;23.30;35.80;;;;;;5007771;28;20028;-47
2022/03/27 00:36:28;;;;;;;5.15;3.10;;;23.30;35.90;;;;;;5008916;28;20033;-48
2022/03/27 00:38:54;;;;;;;5.03;3.17;;;23.30;35.90;;;;;;5025637;28;20025;-48
2022/03/27 00:41:20;;;;;;;4.65;2.70;;;23.30;35.90;;;;;;5026623;28;20034;-49
2022/03/27 00:43:46;;;;;;;4.82;2.95;;;23.30;35.80;;;;;;5026298;28;20072;-47
2022/03/27 00:46:12;;;;;;;4.97;3.28;;;23.30;35.80;;;;;;5026001;28;20029;-47
2022/03/27 00:48:38;;;;;;;4.82;3.28;;;23.20;35.70;;;;;;5026218;28;20048;-48
2022/03/27 00:51:04;;;;;;;4.50;3.08;;;23.20;35.80;;;;;;5026185;28;20568;-49
2022/03/27 00:53:31;;;;;;;5.32;3.25;;;23.30;35.90;;;;;;5026226;28;20042;-48
2022/03/27 00:55:57;;;;;;;4.55;3.20;;;23.30;35.80;;;;;;5025880;28;20022;-48
2022/03/27 00:58:23;;;;;;;4.80;2.97;;;23.20;35.70;;;;;;5025092;28;20125;-47
2022/03/27 01:00:50;;;;;;;4.68;2.97;;;23.20;35.70;;;;;;5025433;28;20114;-47
2022/03/27 01:03:23;;;;;;;5.00;3.28;;;23.20;35.70;;;;;;5026533;28;20029;-47
2022/03/27 01:05:49;;;;;;;;;;;23.20;35.70;;;;;;5009361;28;20175;-48
2022/03/27 01:09:35;;;;;;;4.05;2.80;;;23.20;35.70;;;;;;5026477;28;19995;-48
2022/03/27 01:11:26;;;;;;;5.25;3.03;;;23.20;35.70;;;;;;5026276;28;20025;-49
2022/03/27 01:13:57;;;;;;;4.97;3.33;;;23.20;35.70;;;;;;5026786;28;20030;-49
2022/03/27 01:16:38;;;;;;;4.32;2.58;;;23.20;35.70;;;;;;5026508;28;20040;-46
2022/03/27 01:19:04;;;;;;;4.85;3.50;;;23.20;35.70;;;;;;5026419;28;20029;-47
2022/03/27 01:21:31;;;;;;;4.97;3.20;;;23.20;35.70;;;;;;5026185;28;20060;-48
2022/03/27 01:23:56;;;;;;;5.10;2.78;;;23.20;35.70;;;;;;5026937;28;20032;-49
2022/03/27 01:26:23;;;;;;;4.97;2.80;;;23.20;35.70;;;;;;5026028;28;20043;-48
2022/03/27 01:28:50;;;;;;;5.03;3.10;;;23.10;35.70;;;;;;5026374;28;20220;-48
2022/03/27 01:31:18;;;;;;;4.70;2.97;;;23.10;35.60;;;;;;5026071;28;20116;-48
2022/03/27 01:33:44;;;;;;;5.43;3.53;;;23.10;35.70;;;;;;5025425;28;20084;-48
2022/03/27 01:36:09;;;;;;;4.95;3.22;;;23.10;35.70;;;;;;5025347;28;20034;-49
2022/03/27 01:38:35;;;;;;;4.25;2.75;;;23.10;35.70;;;;;;5009890;28;20102;-49
2022/03/27 01:41:01;;;;;;;4.68;3.40;;;23.10;35.70;;;;;;5025361;28;20497;-48
2022/03/27 01:43:27;;;;;;;4.47;3.05;;;23.10;35.70;;;;;;5025659;28;20385;-48
2022/03/27 01:45:53;;;;;;;4.85;3.20;;;23.10;35.60;;;;;;5022800;28;20104;-50
2022/03/27 01:48:18;;;;;;;4.88;3.30;;;23.10;35.60;;;;;;5023719;28;20026;-49
2022/03/27 01:50:57;;;;;;;4.65;3.08;;;23.10;35.70;;;;;;5024987;28;20371;-48
2022/03/27 01:53:22;;;;;;;4.60;2.97;;;23.10;35.70;;;;;;5025529;28;20124;-49
2022/03/27 01:55:48;;;;;;;6.18;2.80;;;23.10;35.60;;;;;;5025383;28;20163;-49
2022/03/27 01:58:14;;;;;;;4.18;2.90;;;23.10;35.60;;;;;;5007973;28;20025;-48
2022/03/27 02:00:42;;;;;;;4.53;3.10;;;23.10;35.60;;;;;;5021419;28;20060;-49
2022/03/27 02:03:09;;;;;;;4.55;3.00;;;23.10;35.60;;;;;;5024944;28;20024;-46
2022/03/27 02:05:35;;;;;;;4.10;2.63;;;23.10;35.60;;;;;;5021544;28;20046;-49
2022/03/27 02:08:01;;;;;;;5.45;3.30;;;23.10;35.60;;;;;;5025083;28;20061;-49
2022/03/27 02:10:26;;;;;;;4.82;3.38;;;23.00;35.50;;;;;;5023711;28;20030;-48
2022/03/27 02:12:52;;;;;;;4.78;3.20;;;23.00;35.50;;;;;;5024663;28;20116;-49
2022/03/27 02:15:18;;;;;;;5.25;3.60;;;23.00;35.50;;;;;;5025309;28;20029;-49
2022/03/27 02:17:44;;;;;;;3.90;2.88;;;23.00;35.50;;;;;;5025194;28;20029;-48
2022/03/27 02:20:10;;;;;;;4.78;3.08;;;23.00;35.50;;;;;;5025120;28;20478;-48
2022/03/27 02:22:36;;;;;;;6.00;3.35;;;23.00;35.50;;;;;;5025467;28;20030;-49
2022/03/27 02:25:02;;;;;;;5.10;3.10;;;23.00;35.50;;;;;;5024238;28;20374;-48
2022/03/27 02:27:28;;;;;;;6.80;3.95;;;23.00;35.50;;;;;;5024617;28;20061;-47
2022/03/27 02:29:54;;;;;;;4.70;3.28;;;23.00;35.50;;;;;;5024396;28;20033;-49
2022/03/27 02:32:19;;;;;;;5.00;3.35;;;23.00;35.50;;;;;;5024717;28;20670;-49
2022/03/27 02:34:45;;;;;;;4.72;3.10;;;23.00;35.50;;;;;;5025126;28;20079;-49
2022/03/27 02:37:13;;;;;;;4.78;3.05;;;23.00;35.50;;;;;;5025047;28;20029;-48
2022/03/27 02:39:39;;;;;;;4.65;3.13;;;23.00;35.50;;;;;;5024461;28;20053;-50
2022/03/27 02:42:06;;;;;;;4.55;3.33;;;23.00;35.40;;;;;;5024837;28;20036;-49
2022/03/27 02:44:31;;;;;;;5.05;3.30;;;23.00;35.40;;;;;;5025064;28;20119;-48
2022/03/27 02:46:57;;;;;;;4.85;3.22;;;23.00;35.40;;;;;;5024584;28;20061;-50
2022/03/27 02:49:23;;;;;;;5.07;3.25;;;23.00;35.40;;;;;;5025079;28;20038;-49
2022/03/27 02:51:49;;;;;;;4.88;3.47;;;23.00;35.40;;;;;;5024379;28;20099;-49
2022/03/27 02:54:15;;;;;;;4.97;3.47;;;23.00;35.40;;;;;;5024013;28;20029;-48
2022/03/27 02:56:40;;;;;;;4.88;3.22;;;23.00;35.40;;;;;;5024474;28;20437;-49
2022/03/27 02:59:06;;;;;;;5.28;3.70;;;22.90;35.40;;;;;;5024346;28;20025;-49
2022/03/27 03:01:32;;;;;;;5.07;3.50;;;23.00;35.40;;;;;;5022891;28;20041;-49
2022/03/27 03:03:58;;;;;;;4.90;3.42;;;23.00;35.40;;;;;;5024536;28;20025;-49
2022/03/27 03:06:25;;;;;;;5.03;3.15;;;23.00;35.40;;;;;;5023307;28;20029;-49
2022/03/27 03:08:52;;;;;;;5.43;3.67;;;22.90;35.40;;;;;;5024177;28;20033;-49
2022/03/27 03:11:20;;;;;;;4.35;3.17;;;23.00;35.30;;;;;;5024171;28;20025;-48
2022/03/27 03:13:47;;;;;;;5.13;3.55;;;22.90;35.40;;;;;;5024353;28;20087;-48
2022/03/27 03:16:15;;;;;;;6.00;3.85;;;22.90;35.40;;;;;;5024208;28;20731;-48
2022/03/27 03:18:42;;;;;;;5.50;3.85;;;22.90;35.40;;;;;;5023441;28;20038;-47
2022/03/27 03:21:08;;;;;;;5.85;4.25;;;22.90;35.30;;;;;;5024553;28;20026;-49
2022/03/27 03:23:33;;;;;;;5.47;3.58;;;22.90;35.40;;;;;;5031497;28;20032;-48
2022/03/27 03:26:00;;;;;;;5.07;3.80;;;22.90;35.30;;;;;;5031236;28;20032;-49
2022/03/27 03:28:26;;;;;;;4.68;3.22;;;22.90;35.30;;;;;;5031297;28;20067;-49
2022/03/27 03:30:51;;;;;;;4.88;3.28;;;22.90;35.30;;;;;;5030862;28;20632;-49
2022/03/27 03:33:18;;;;;;;5.43;4.00;;;22.90;35.30;;;;;;5030737;28;20123;-48
2022/03/27 03:35:44;;;;;;;5.25;3.78;;;22.90;35.30;;;;;;5030261;28;20103;-49
2022/03/27 03:38:09;;;;;;;5.32;3.92;;;22.90;35.30;;;;;;5030839;28;20069;-48
2022/03/27 03:40:35;;;;;;;6.07;3.85;;;22.90;35.40;;;;;;5031591;28;20096;-48
2022/03/27 03:43:01;;;;;;;4.78;3.40;;;22.90;35.30;;;;;;5031239;28;20049;-47
2022/03/27 03:45:27;;;;;;;4.95;3.40;;;22.80;35.30;;;;;;5031146;28;20436;-49
2022/03/27 03:47:52;;;;;;;5.55;3.85;;;22.90;35.30;;;;;;5030882;28;20033;-49
2022/03/27 03:50:18;;;;;;;5.07;3.83;;;22.80;35.20;;;;;;5030443;28;20096;-48
2022/03/27 03:52:44;;;;;;;4.85;3.42;;;22.80;35.20;;;;;;5030659;28;20451;-48
2022/03/27 03:55:09;;;;;;;4.78;3.75;;;22.80;35.20;;;;;;5030753;28;20025;-47
2022/03/27 03:57:35;;;;;;;5.65;3.40;;;22.90;35.30;;;;;;5029469;28;20060;-49
2022/03/27 04:00:01;;;;;;;6.13;4.20;;;22.80;35.20;;;;;;5030507;28;20461;-49
2022/03/27 04:02:27;;;;;;;4.97;3.70;;;22.80;35.20;;;;;;5029930;28;20094;-49
2022/03/27 04:04:52;;;;;;;5.13;3.85;;;22.80;35.20;;;;;;5030764;28;20029;-49
2022/03/27 04:07:18;;;;;;;5.70;3.97;;;22.80;35.20;;;;;;5031019;28;20313;-48
2022/03/27 04:09:44;;;;;;;5.80;4.20;;;22.80;35.20;;;;;;5030351;28;20239;-49
2022/03/27 04:12:10;;;;;;;5.43;3.78;;;22.80;35.20;;;;;;5030706;28;20033;-49
2022/03/27 04:14:36;;;;;;;5.47;4.10;;;22.80;35.20;;;;;;5030826;28;20040;-48
2022/03/27 04:17:04;;;;;;;4.60;3.85;;;22.80;35.20;;;;;;5030945;28;20378;-48
2022/03/27 04:19:30;;;;;;;6.15;4.85;;;22.70;35.20;;;;;;5030366;28;20025;-48
2022/03/27 04:21:57;;;;;;;5.60;4.50;;;22.80;35.20;;;;;;5030775;28;20044;-47
2022/03/27 04:24:23;;;;;;;6.43;4.57;;;22.80;35.20;;;;;;5030090;28;20048;-49
2022/03/27 04:26:49;;;;;;;5.43;4.10;;;22.80;35.20;;;;;;5030695;28;20063;-48
2022/03/27 04:29:14;;;;;;;6.10;3.92;;;22.80;35.20;;;;;;5012635;28;20029;-49
2022/03/27 04:31:40;;;;;;;5.40;3.80;;;22.80;35.20;;;;;;5030106;28;20116;-49
2022/03/27 04:34:07;;;;;;;5.45;4.00;;;22.80;35.20;;;;;;5027324;28;20090;-48
2022/03/27 04:36:33;;;;;;;5.47;4.10;;;22.80;35.20;;;;;;5026943;28;20044;-49
2022/03/27 04:38:59;;;;;;;5.75;4.00;;;22.80;35.20;;;;;;5023690;28;20025;-48
2022/03/27 04:41:25;;;;;;;5.95;4.57;;;22.80;35.20;;;;;;5024119;28;20025;-49
2022/03/27 04:43:51;;;;;;;5.93;4.53;;;22.80;35.20;;;;;;5026138;28;20048;-49
2022/03/27 04:46:17;;;;;;;5.10;4.13;;;22.80;35.20;;;;;;5026305;28;20021;-49
2022/03/27 04:48:44;;;;;;;5.95;4.57;;;22.80;35.20;;;;;;5026995;28;20513;-49
2022/03/27 04:51:10;;;;;;;5.72;4.18;;;22.80;35.20;;;;;;5027016;28;20064;-49
2022/03/27 04:53:35;;;;;;;5.75;4.40;;;22.80;35.20;;;;;;5027087;28;20075;-48
2022/03/27 04:56:01;;;;;;;5.57;4.18;;;22.80;35.10;;;;;;5026749;28;20053;-48
2022/03/27 04:58:27;;;;;;;5.85;4.32;;;22.80;35.10;;;;;;5027024;28;20032;-49
2022/03/27 05:00:52;;;;;;;4.70;3.70;;;22.80;35.10;;;;;;5026191;28;20030;-49
2022/03/27 05:03:18;;;;;;;5.20;4.10;;;22.70;35.10;;;;;;5026114;28;20074;-49
2022/03/27 05:05:44;;;;;;;5.55;4.28;;;22.70;35.10;;;;;;5026201;28;20026;-49
2022/03/27 05:08:10;;;;;;;5.55;4.07;;;22.70;35.20;;;;;;5026264;28;20033;-49
2022/03/27 05:10:36;;;;;;;5.25;3.88;;;22.70;35.20;;;;;;5025880;28;20025;-49
2022/03/27 05:13:02;;;;;;;5.22;4.00;;;22.70;35.20;;;;;;5025556;28;20032;-49
2022/03/27 05:15:28;;;;;;;5.95;3.97;;;22.70;35.20;;;;;;5025275;28;20128;-48
2022/03/27 05:17:57;;;;;;;6.28;4.50;;;22.70;35.40;;;;;;5025690;28;20611;-49
2022/03/27 05:20:23;;;;;;;5.45;4.07;;;22.70;35.40;;;;;;5025894;28;20021;-49
2022/03/27 05:22:49;;;;;;;5.72;3.92;;;22.70;35.40;;;;;;5026389;28;20033;-50
2022/03/27 05:25:16;;;;;;;5.07;3.95;;;22.80;35.50;;;;;;5025768;28;20033;-50
2022/03/27 05:27:53;;;;;;;4.63;3.55;;;22.80;35.50;;;;;;5026151;28;20109;-48
2022/03/27 05:30:23;;;;;;;4.40;3.60;;;22.70;35.50;;;;;;5025108;28;20029;-48
2022/03/27 05:32:51;;;;;;;5.85;3.90;;;22.80;35.50;;;;;;5025209;28;20319;-49
2022/03/27 05:35:17;;;;;;;4.82;3.38;;;22.90;35.60;;;;;;5025623;28;20592;-50
2022/03/27 05:37:44;;;;;;;5.57;3.80;;;22.90;35.60;;;;;;5024134;28;20409;-49
2022/03/27 05:40:12;;;;;;;5.53;3.92;;;22.90;35.50;;;;;;5025018;28;20544;-50
2022/03/27 05:42:39;;;;;;;5.78;4.30;;;23.00;35.50;;;;;;5024464;28;20108;-49
2022/03/27 05:45:07;;;;;;;5.53;4.28;;;23.00;35.50;;;;;;5024574;28;20024;-49
2022/03/27 05:47:34;;;;;;;4.85;3.65;;;23.00;35.40;;;;;;5025566;28;20053;-50
2022/03/27 05:50:00;;;;;;;5.20;3.92;;;23.10;35.40;;;;;;5004275;28;20036;-49
2022/03/27 05:52:26;;;;;;;5.07;3.88;;;23.10;35.40;;;;;;5025545;28;20045;-49
2022/03/27 05:54:52;;;;;;;5.53;4.00;;;23.10;35.30;;;;;;5025613;28;20603;-50
2022/03/27 05:57:19;;;;;;;4.30;3.25;;;23.20;35.20;;;;;;5025218;28;20079;-49
2022/03/27 05:59:47;;;;;;;4.57;3.35;;;23.20;35.10;;;;;;5007247;28;20018;-49
2022/03/27 06:02:14;;;;;;;4.57;3.42;;;23.30;35.20;;;;;;5020421;28;20440;-49
2022/03/27 06:04:41;;;;;;;5.30;3.47;;;23.30;35.10;;;;;;5019850;28;20446;-49
2022/03/27 06:07:07;;;;;;;5.25;3.53;;;23.30;35.10;;;;;;5023770;28;20014;-49
2022/03/27 06:09:33;;;;;;;4.45;3.20;;;23.40;35.00;;;;;;5024603;28;20516;-49
2022/03/27 06:12:00;;;;;;;4.68;3.30;;;23.40;34.90;;;;;;5024967;28;20037;-49
2022/03/27 06:14:26;;;;;;;4.45;3.22;;;23.40;34.90;;;;;;5024976;28;20057;-50
2022/03/27 06:16:52;;;;;;;5.18;3.95;;;23.40;34.80;;;;;;5024786;28;20048;-49
2022/03/27 06:19:18;;;;;;;5.18;4.05;;;23.50;34.80;;;;;;5003854;28;20445;-49
2022/03/27 06:21:45;;;;;;;4.68;3.53;;;23.50;34.80;;;;;;5024871;28;20491;-49
2022/03/27 06:24:12;;;;;;;4.47;3.50;;;23.50;34.70;;;;;;5025109;28;20030;-49
2022/03/27 06:26:41;;;;;;;5.22;3.47;;;23.50;34.70;;;;;;5007543;28;20474;-49
2022/03/27 06:29:10;;;;;;;5.40;3.65;;;23.50;34.70;;;;;;5024923;28;20036;-49
2022/03/27 06:31:38;;;;;;;4.57;3.38;;;23.50;34.60;;;;;;5024932;28;20382;-49
2022/03/27 06:34:06;;;;;;;4.80;3.78;;;23.50;34.60;;;;;;5025515;28;20453;-49
2022/03/27 06:36:32;;;;;;;5.68;4.00;;;23.60;34.60;;;;;;5024854;28;20105;-50
2022/03/27 06:38:58;;;;;;;4.35;3.03;;;23.60;34.60;;;;;;5021445;28;20030;-49
2022/03/27 06:41:25;;;;;;;5.78;3.13;;;23.60;34.60;;;;;;5024451;28;20021;-49
2022/03/27 06:43:50;;;;;;;3.85;2.92;;;23.60;34.50;;;;;;5024863;28;20481;-49
2022/03/27 06:46:17;;;;;;;4.78;3.42;;;23.60;34.50;;;;;;5024625;28;20088;-49
2022/03/27 06:48:47;;;;;;;4.38;3.35;;;23.60;34.50;;;;;;5024751;28;20029;-50
2022/03/27 06:51:13;;;;;;;5.43;3.88;;;23.60;34.50;;;;;;5024617;28;20041;-50
2022/03/27 06:53:40;;;;;;;4.80;3.30;;;23.60;34.40;;;;;;5025028;28;20406;-49
2022/03/27 06:56:06;;;;;;;5.22;3.33;;;23.60;34.50;;;;;;5023206;28;20025;-49
2022/03/27 06:58:33;;;;;;;5.18;3.75;;;23.60;34.40;;;;;;5020544;28;20022;-49
2022/03/27 07:03:42;;;;;;;5.13;3.53;;;23.60;34.30;;;;;;5024420;28;20629;-48
2022/03/27 07:06:08;;;;;;;4.40;3.42;;;23.60;34.30;;;;;;5024861;28;20029;-48
2022/03/27 07:08:34;;;;;;;4.78;3.33;;;23.60;34.30;;;;;;5024767;28;20414;-49
2022/03/27 07:11:00;;;;;;;4.22;3.08;;;23.60;34.30;;;;;;5024381;28;20080;-49
2022/03/27 07:13:26;;;;;;;4.20;3.08;;;23.60;34.30;;;;;;5024340;28;20033;-49
2022/03/27 07:15:52;;;;;;;4.75;3.03;;;23.60;34.30;;;;;;5024358;28;20037;-49
2022/03/27 07:18:18;;;;;;;4.13;2.80;;;23.70;35.00;;;;;;5024314;28;20056;-49
2022/03/27 07:20:46;;;;;;;4.55;3.22;;;23.70;34.30;;;;;;5023938;28;20021;-49
2022/03/27 07:23:14;;;;;;;4.07;2.90;;;23.70;34.40;;;;;;5024069;28;20022;-52
2022/03/27 07:25:42;;;;;;;4.13;2.78;;;23.70;34.40;;;;;;5023392;28;20420;-49
2022/03/27 07:28:10;;;;;;;4.43;3.05;;;23.70;34.40;;;;;;5022765;28;20450;-49
2022/03/27 07:30:36;;;;;;;4.30;2.88;;;23.70;34.30;;;;;;5023210;28;20033;-49
2022/03/27 07:33:03;;;;;;;4.47;3.10;;;23.70;34.30;;;;;;5023140;28;20033;-50
2022/03/27 07:35:32;;;;;;;4.30;2.67;;;23.70;34.30;;;;;;5021278;28;20116;-50
2022/03/27 07:37:58;;;;;;;4.80;2.83;;;23.70;34.30;;;;;;5001314;28;20061;-49
2022/03/27 07:40:24;;;;;;;4.18;2.80;;;23.80;34.30;;;;;;5017663;28;20026;-49
2022/03/27 07:42:51;;;;;;;4.18;2.80;;;23.80;34.30;;;;;;5023074;28;20021;-49
2022/03/27 07:45:19;;;;;;;5.50;3.20;;;23.80;34.20;;;;;;5023224;28;20049;-50
2022/03/27 07:47:46;;;;;;;4.45;2.78;;;23.80;34.30;;;;;;5023458;28;20025;-49
2022/03/27 07:50:12;;;;;;;5.13;2.97;;;23.80;34.30;;;;;;5022975;28;20026;-49
2022/03/27 07:52:38;;;;;;;4.57;3.53;;;23.80;34.30;;;;;;5023044;28;20572;-49
2022/03/27 07:55:06;;;;;;;3.88;2.60;;;23.70;34.30;;;;;;5023982;28;20233;-48
2022/03/27 07:57:32;;;;;;;6.40;3.40;;;23.80;34.40;;;;;;5005038;28;20033;-49
2022/03/27 07:59:57;;;;;;;5.25;3.03;;;23.80;34.60;;;;;;5022583;28;20022;-48
2022/03/27 08:02:23;;;;;;;7.10;2.92;;;23.80;34.70;;;;;;5014899;28;20036;-49
2022/03/27 08:04:49;;;;;;;8.80;3.05;;;23.80;34.90;;;;;;5013364;28;20018;-49
2022/03/27 08:07:16;;;;;;;7.43;3.00;;;23.80;34.90;;;;;;5023505;28;20049;-48
2022/03/27 08:09:42;;;;;;;7.43;3.38;;;23.80;34.80;;;;;;5025055;28;20037;-48
2022/03/27 08:12:09;;;;;;;5.78;3.17;;;23.80;34.80;;;;;;5019481;28;20025;-49
2022/03/27 08:14:39;;;;;;;6.50;2.97;;;23.80;34.80;;;;;;5018641;28;20053;-49
2022/03/27 08:17:06;;;;;;;5.80;2.65;;;23.80;34.90;;;;;;5016381;28;20029;-49
2022/03/27 08:19:32;;;;;;;5.43;3.03;;;23.80;34.90;;;;;;5026357;28;20032;-49
2022/03/27 08:22:00;;;;;;;5.53;2.83;;;23.80;34.90;;;;;;5024571;28;20026;-49
2022/03/27 08:24:25;;;;;;;5.15;3.13;;;23.80;34.80;;;;;;5026488;28;20115;-49
2022/03/27 08:26:59;;;;;;;5.75;2.90;;;23.80;34.80;;;;;;5027067;28;20513;-49
2022/03/27 08:29:32;;;;;;;5.20;2.67;;;23.80;34.80;;;;;;5026279;28;20112;-49
2022/03/27 08:32:01;;;;;;;;;;;23.80;34.80;;;;;;5027139;28;20052;-49
2022/03/27 08:34:30;;;;;;;4.32;2.50;;;23.80;34.70;;;;;;4995326;28;19928;-48
2022/03/27 08:36:57;;;;;;;4.25;2.53;;;23.80;34.80;;;;;;5027023;28;20032;-49
2022/03/27 08:39:23;;;;;;;5.18;3.13;;;23.80;34.70;;;;;;5026420;28;20194;-49
2022/03/27 08:41:53;;;;;;;4.20;2.70;;;23.70;34.70;;;;;;5026663;28;20091;-49
2022/03/27 08:44:19;;;;;;;6.00;3.05;;;23.80;34.70;;;;;;5023259;28;20075;-48
2022/03/27 08:46:48;;;;;;;3.92;2.80;;;23.80;34.70;;;;;;5026387;28;20045;-49
2022/03/27 08:49:33;;;;;;;4.57;2.80;;;23.80;34.70;;;;;;5026143;28;20406;-49
2022/03/27 08:52:17;;;;;;;4.60;2.30;;;23.80;34.70;;;;;;5016061;28;20056;-49
2022/03/27 08:54:56;;;;;;;3.65;2.33;;;23.80;34.70;;;;;;5026902;28;20567;-48
2022/03/27 08:57:26;;;;;;;3.78;2.08;;;23.80;34.70;;;;;;5022112;28;20025;-49
2022/03/27 08:59:53;;;;;;;4.20;2.55;;;23.70;34.60;;;;;;5026267;28;20040;-49
2022/03/27 09:02:26;;;;;;;3.90;2.30;;;23.70;34.60;;;;;;5005906;28;20550;-49
2022/03/27 09:04:55;;;;;;;4.43;2.85;;;23.70;34.60;;;;;;5026559;28;20029;-49
2022/03/27 09:07:25;;;;;;;3.80;2.30;;;23.70;34.60;;;;;;5025913;28;20022;-48
2022/03/27 09:09:52;;;;;;;3.72;2.42;;;23.70;34.50;;;;;;5025776;28;20038;-49
2022/03/27 09:12:20;;;;;;;4.80;2.80;;;23.70;34.50;;;;;;5024305;28;20037;-48
2022/03/27 09:14:46;;;;;;;4.05;2.53;;;23.70;34.50;;;;;;5026396;28;20021;-49
2022/03/27 09:17:14;;;;;;;4.03;2.33;;;23.70;34.50;;;;;;5024225;28;20059;-48
2022/03/27 09:19:43;;;;;;;3.78;2.38;;;23.70;34.50;;;;;;5022345;28;20141;-49
2022/03/27 09:22:16;;;;;;;4.00;2.50;;;23.70;34.50;;;;;;5022420;28;20097;-49
2022/03/27 09:24:46;;;;;;;5.43;2.30;;;23.60;34.50;;;;;;5025596;28;20025;-48
2022/03/27 09:27:13;;;;;;;3.60;2.17;;;23.70;34.50;;;;;;5026358;28;20032;-49
2022/03/27 09:29:59;;;;;;;4.22;2.42;;;23.60;34.40;;;;;;5012768;28;20556;-49
2022/03/27 09:32:31;;;;;;;3.30;2.10;;;23.60;34.50;;;;;;5016622;28;20036;-49
2022/03/27 09:35:04;;;;;;;3.33;2.15;;;23.60;34.40;;;;;;5026443;28;20033;-49
2022/03/27 09:37:41;;;;;;;3.75;2.35;;;23.60;34.40;;;;;;5015101;28;20038;-50
2022/03/27 09:40:10;;;;;;;3.78;2.15;;;23.60;34.40;;;;;;5006020;28;20497;-50
2022/03/27 09:42:38;;;;;;;4.10;2.10;;;23.60;34.40;;;;;;5004753;28;20026;-50
2022/03/27 09:45:13;;;;;;;6.32;2.90;;;23.60;34.40;;;;;;4988130;28;20029;-50
2022/03/27 09:47:40;;;;;;;4.32;2.30;;;23.60;34.50;;;;;;5005079;28;20022;-50
2022/03/27 09:50:06;;;;;;;3.92;2.20;;;23.60;34.40;;;;;;5004566;28;20022;-50
2022/03/27 09:52:33;;;;;;;5.07;2.78;;;23.60;34.40;;;;;;5009454;28;20162;-50
2022/03/27 09:55:07;;;;;;;4.03;2.40;;;23.60;34.50;;;;;;5006966;28;20034;-49
2022/03/27 09:57:34;;;;;;;3.60;1.98;;;23.60;34.50;;;;;;5022585;28;20640;-50
2022/03/27 10:00:12;;;;;;;3.30;2.08;;;23.60;34.50;;;;;;5005341;28;20708;-51
2022/03/27 10:02:39;;;;;;;3.63;2.15;;;23.60;34.60;;;;;;5004566;28;20030;-50
2022/03/27 10:05:08;;;;;;;3.53;2.10;;;23.60;34.60;;;;;;5016688;28;20029;-50
2022/03/27 10:07:47;;;;;;;3.10;2.00;;;23.60;34.60;;;;;;5004791;28;20289;-50
2022/03/27 10:10:20;;;;;;;4.03;2.10;;;23.60;34.70;;;;;;5021700;28;20569;-48
2022/03/27 10:12:50;;;;;;;6.07;2.45;;;23.60;34.80;;;;;;5021812;28;20030;-49
2022/03/27 10:15:21;;;;;;;6.72;2.45;;;23.60;34.80;;;;;;5023525;28;20110;-50
2022/03/27 10:18:00;;;;;;;9.88;3.65;;;23.60;34.80;;;;;;5021753;28;20068;-50
2022/03/27 10:20:34;;;;;;;7.32;3.03;;;23.60;35.00;;;;;;5022045;28;20017;-49
2022/03/27 10:23:04;;;;;;;7.25;3.35;;;23.60;35.10;;;;;;5019119;28;20113;-49
2022/03/27 10:25:37;;;;;;;5.10;3.00;;;23.70;35.30;;;;;;5019497;28;20438;-49
2022/03/27 10:28:04;;;;;;;6.97;3.17;;;23.70;35.20;;;;;;5021007;28;20018;-50
2022/03/27 10:30:30;;;;;;;7.88;3.33;;;23.70;35.30;;;;;;5021896;28;20034;-50
2022/03/27 10:32:57;;;;;;;6.38;4.00;;;23.70;35.20;;;;;;5017983;28;20460;-49
2022/03/27 10:36:14;;;;;;;9.00;3.40;;;23.60;35.20;;;;;;5022147;28;20092;-49
2022/03/27 10:39:14;;;;;;;7.57;3.30;;;23.70;35.30;;;;;;4969450;28;20042;-48
2022/03/27 10:42:02;;;;;;;9.10;3.35;;;23.70;35.30;;;;;;4978274;28;20041;-49
2022/03/27 10:44:40;;;;;;;6.63;3.15;;;23.70;35.30;;;;;;5016530;28;20709;-49
2022/03/27 10:47:14;;;;;;;7.70;3.53;;;23.70;35.20;;;;;;5024197;28;20045;-49
2022/03/27 10:49:59;;;;;;;9.55;3.75;;;23.70;35.20;;;;;;5023812;28;20040;-48
2022/03/27 10:52:26;;;;;;;8.75;3.88;;;23.70;35.20;;;;;;5024103;28;20045;-48
2022/03/27 10:55:00;;;;;;;7.20;3.72;;;23.70;35.20;;;;;;5024137;28;20031;-48
2022/03/27 10:57:34;;;;;;;5.97;3.40;;;23.70;35.20;;;;;;5023754;28;20033;-49
2022/03/27 11:00:03;;;;;;;5.75;3.08;;;23.70;35.30;;;;;;5023569;28;20594;-49
2022/03/27 11:02:51;;;;;;;6.50;3.55;;;23.70;35.30;;;;;;5023143;28;20064;-49
2022/03/27 11:05:35;;;;;;;6.68;3.67;;;23.70;35.30;;;;;;5023965;28;20060;-49
2022/03/27 11:08:19;;;;;;;6.63;3.55;;;23.70;35.40;;;;;;5023761;28;20060;-50
2022/03/27 11:10:52;;;;;;;7.72;3.88;;;23.70;35.30;;;;;;5023623;28;20021;-49
2022/03/27 11:13:26;;;;;;;9.00;3.47;;;23.70;35.40;;;;;;5023777;28;20143;-48
2022/03/27 11:16:11;;;;;;;6.32;3.60;;;23.70;35.40;;;;;;5023427;28;20552;-50
2022/03/27 11:18:43;;;;;;;5.60;2.85;;;23.70;35.40;;;;;;5023328;28;20041;-48
2022/03/27 11:21:13;;;;;;;4.72;2.90;;;23.70;35.50;;;;;;5023412;28;20026;-49
2022/03/27 11:23:41;;;;;;;6.63;3.22;;;23.70;35.50;;;;;;5023922;28;20410;-49
2022/03/27 11:26:19;;;;;;;6.82;3.67;;;23.70;35.60;;;;;;5023650;28;20021;-49
2022/03/27 11:28:54;;;;;;;5.78;2.83;;;23.70;35.60;;;;;;5023868;28;20104;-49
2022/03/27 11:31:27;;;;;;;5.05;3.00;;;23.70;35.60;;;;;;5023161;28;20060;-49
2022/03/27 11:34:19;;;;;;;6.65;2.90;;;23.80;35.70;;;;;;5021944;28;20033;-49
2022/03/27 11:37:04;;;;;;;4.43;2.47;;;23.70;35.70;;;;;;5018576;28;20034;-49
2022/03/27 11:39:29;;;;;;;4.32;2.53;;;23.80;35.80;;;;;;5023319;28;20133;-50
2022/03/27 11:42:22;;;;;;;4.43;2.45;;;23.80;35.90;;;;;;5023604;28;20141;-50
2022/03/27 11:45:07;;;;;;;6.28;3.35;;;23.80;35.90;;;;;;5027564;28;20079;-49
2022/03/27 11:47:41;;;;;;;4.22;2.30;;;23.70;36.00;;;;;;5027184;28;20060;-49
2022/03/27 11:50:09;;;;;;;4.40;2.30;;;23.80;35.80;;;;;;5026727;28;20025;-50
2022/03/27 11:52:35;;;;;;;6.38;2.92;;;23.80;36.00;;;;;;5026908;28;20029;-49
2022/03/27 11:55:07;;;;;;;4.70;2.42;;;23.80;36.00;;;;;;5027331;28;20127;-50
2022/03/27 11:57:42;;;;;;;5.67;2.20;;;23.80;36.00;;;;;;5026733;28;20393;-49
2022/03/27 12:00:08;;;;;;;5.53;2.55;;;23.80;36.60;;;;;;5009275;28;20056;-49
2022/03/27 12:02:45;;;;;;;8.07;3.08;;;23.80;37.20;;;;;;5026988;28;20040;-49
2022/03/27 12:05:12;;;;;;;4.65;2.67;;;23.80;37.90;;;;;;5027145;28;20569;-49
2022/03/27 12:08:11;;;;;;;6.72;2.70;;;23.80;39.00;;;;;;5026461;28;20026;-49
2022/03/27 12:10:46;;;;;;;4.95;2.17;;;23.90;40.60;;;;;;5007297;28;20041;-48
2022/03/27 12:13:14;;;;;;;7.78;3.13;;;23.90;40.20;;;;;;5009406;28;20677;-49
2022/03/27 12:15:45;;;;;;;5.45;2.40;;;23.90;40.00;;;;;;5026357;28;20135;-49
2022/03/27 12:18:12;;;;;;;5.22;2.55;;;23.90;38.90;;;;;;5025547;28;20624;-49
2022/03/27 12:20:42;;;;;;;8.82;4.28;;;24.00;38.60;;;;;;5025836;28;20056;-50
2022/03/27 12:23:34;;;;;;;6.57;3.47;;;24.00;39.20;;;;;;5024859;28;20037;-50
2022/03/27 12:29:39;;;;;;;8.30;4.53;;;24.00;38.90;;;;;;5015249;28;20053;-50
2022/03/27 12:31:50;;;;;;;8.02;5.50;;;24.10;39.70;;;;;;5025928;28;20028;-50
2022/03/27 12:34:16;;;;;;;7.80;6.07;;;24.20;38.60;;;;;;5014876;28;20108;-51
2022/03/27 12:37:09;;;;;;;8.15;6.47;;;24.20;39.20;;;;;;5022091;28;20088;-50
2022/03/27 12:39:40;;;;;;;8.98;6.15;;;24.20;38.30;;;;;;5026156;28;20052;-50
2022/03/27 12:42:06;;;;;;;7.68;5.70;;;24.20;38.20;;;;;;5026034;28;20025;-50
2022/03/27 12:44:50;;;;;;;6.85;5.68;;;24.30;38.10;;;;;;5026199;28;20111;-50
2022/03/27 12:47:16;;;;;;;6.57;4.72;;;24.30;37.90;;;;;;5025761;28;20164;-50
2022/03/27 12:49:50;;;;;;;6.90;4.95;;;24.30;37.80;;;;;;5026188;28;20128;-51
2022/03/27 12:52:17;;;;;;;6.43;4.53;;;24.40;37.60;;;;;;5025987;28;20044;-56
2022/03/27 12:55:03;;;;;;;6.55;4.50;;;24.40;37.50;;;;;;5024999;28;20033;-50
2022/03/27 12:57:57;;;;;;;5.40;3.90;;;24.40;37.40;;;;;;5026206;28;20033;-50
2022/03/27 13:00:31;;;;;;;6.03;4.28;;;24.50;37.40;;;;;;5024956;28;20586;-50
2022/03/27 13:03:20;;;;;;;6.47;3.67;;;24.50;37.40;;;;;;5025226;28;20436;-50
2022/03/27 13:05:58;;;;;;;6.25;3.80;;;24.50;37.30;;;;;;5018183;28;20063;-51